Terminal Aerodrome Forecast
Issued by NWS

Home | Current Version | Previous Version | Text Only | Print | Product List | Glossary On
Versions: 1 2 3 4 5 6 7 8 9 10 11 12 13 14 15 16 17 18 19 20 21 22 23 24 25 26 27 28 29 30 31 32 33 34 35 36 37 38 39 40 41 42 43 44 45 46 47
000
FTUS43 KDMX 232013 AAB
TAFMCW
TAF AMD
KMCW 232013Z 2320/2418 17004KT 3/4SM -DZ BR VV003
     FM232300 32014G23KT 5SM -RA SCT007 BKN009
     FM240700 31023G33KT 2SM -SN SCT009 OVC014
     FM241100 32025G36KT 5SM -SN BKN014 OVC022=

USA.gov is the U.S. government's official web portal to all federal, state and local government web resources and services.